Time;durP1;ratioP1;P1;durP2;ratioP2;P2;SDS_P1;SDS_P2;PMS_P1;PMS_P2;Temp;Humidity;BMP_temperature;BMP_pressure;BME280_temperature;BME280_humidity;BME280_pressure;Samples;Min_cycle;Max_cycle;Signal;HPM_P1;HPM_P2
2023/06/18 00:00:38;;;;;;;10.77;7.53;;;15.90;65.40;;;;;;5038185;28;20449;-75
2023/06/18 00:03:24;;;;;;;16.10;8.03;;;15.80;66.10;;;;;;5051364;28;20448;-74
2023/06/18 00:06:10;;;;;;;8.87;7.33;;;15.70;66.50;;;;;;5047429;28;20464;-75
2023/06/18 00:08:56;;;;;;;10.00;7.70;;;15.80;67.00;;;;;;5039568;28;21009;-74
2023/06/18 00:11:42;;;;;;;8.90;7.53;;;15.70;66.80;;;;;;5043344;28;20964;-75
2023/06/18 00:14:28;;;;;;;11.80;8.40;;;15.70;66.70;;;;;;5037662;28;20554;-74
2023/06/18 00:17:13;;;;;;;8.90;8.00;;;15.60;67.20;;;;;;5038883;28;20522;-74
2023/06/18 00:19:59;;;;;;;13.30;7.40;;;15.60;68.20;;;;;;5035771;28;20440;-74
2023/06/18 00:22:48;;;;;;;9.27;7.73;;;15.60;68.10;;;;;;5037609;28;20443;-74
2023/06/18 00:25:35;;;;;;;10.80;8.20;;;15.60;68.10;;;;;;5041991;28;20512;-74
2023/06/18 00:28:21;;;;;;;9.93;7.40;;;15.60;67.80;;;;;;5042657;28;20977;-74
2023/06/18 00:31:07;;;;;;;9.20;6.97;;;15.50;68.10;;;;;;5038611;28;20530;-74
2023/06/18 00:33:52;;;;;;;11.33;8.07;;;15.40;69.20;;;;;;5043349;28;20454;-74
2023/06/18 00:36:38;;;;;;;13.20;7.90;;;15.20;69.50;;;;;;5043397;28;20561;-74
2023/06/18 00:39:24;;;;;;;9.00;7.83;;;15.20;70.70;;;;;;5039796;28;20514;-74
2023/06/18 00:42:11;;;;;;;9.90;7.83;;;15.10;70.60;;;;;;5034740;28;20522;-74
2023/06/18 00:44:57;;;;;;;10.10;7.90;;;15.10;70.60;;;;;;5043088;28;20994;-74
2023/06/18 00:47:44;;;;;;;8.57;6.83;;;15.10;70.30;;;;;;5043955;28;20471;-73
2023/06/18 00:50:32;;;;;;;8.40;7.50;;;15.20;70.70;;;;;;5039103;28;20495;-74
2023/06/18 00:53:17;;;;;;;11.20;8.00;;;15.30;69.50;;;;;;5044454;28;20445;-74
2023/06/18 00:56:02;;;;;;;14.77;8.57;;;15.20;69.70;;;;;;5044922;28;20522;-74
2023/06/18 00:58:51;;;;;;;12.00;8.10;;;15.20;70.10;;;;;;5041294;28;21225;-74
2023/06/18 01:01:36;;;;;;;8.30;7.23;;;15.00;69.80;;;;;;5041800;28;20977;-74
2023/06/18 01:04:23;;;;;;;7.67;6.70;;;14.90;70.10;;;;;;5046815;28;20436;-74
2023/06/18 01:07:13;;;;;;;11.93;8.23;;;14.90;70.50;;;;;;5038303;28;21210;-74
2023/06/18 01:09:58;;;;;;;10.30;7.80;;;15.00;70.50;;;;;;5037610;28;20821;-74
2023/06/18 01:12:48;;;;;;;7.43;6.53;;;14.90;69.20;;;;;;5042256;28;20456;-74
2023/06/18 01:15:34;;;;;;;9.13;7.50;;;14.90;69.80;;;;;;5040298;28;20856;-74
2023/06/18 01:18:21;;;;;;;8.73;7.83;;;14.90;69.60;;;;;;5041128;28;20610;-74
2023/06/18 01:21:10;;;;;;;7.90;6.80;;;14.90;69.90;;;;;;5042121;28;20447;-74
2023/06/18 01:24:03;;;;;;;9.50;6.90;;;14.80;69.40;;;;;;5044101;28;20468;-74
2023/06/18 01:26:48;;;;;;;10.43;7.30;;;14.90;70.20;;;;;;5039297;28;20487;-74
2023/06/18 01:29:39;;;;;;;8.20;6.87;;;14.80;70.40;;;;;;5041342;28;20957;-74
2023/06/18 01:32:26;;;;;;;15.30;9.23;;;14.70;70.30;;;;;;5044634;28;20447;-74
2023/06/18 01:35:14;;;;;;;13.00;6.73;;;14.50;70.10;;;;;;5041504;28;20550;-74
2023/06/18 01:38:27;;;;;;;7.83;7.03;;;14.50;70.10;;;;;;5041552;28;20471;-74
2023/06/18 01:41:16;;;;;;;7.80;7.00;;;14.50;71.50;;;;;;5032174;28;22048;-74
2023/06/18 01:44:07;;;;;;;7.97;7.17;;;14.50;71.00;;;;;;5044747;28;20517;-74
2023/06/18 01:46:55;;;;;;;9.20;6.87;;;14.60;70.20;;;;;;5042382;28;20555;-74
2023/06/18 01:49:45;;;;;;;9.07;7.53;;;14.60;70.20;;;;;;5040248;28;20491;-74
2023/06/18 01:52:35;;;;;;;9.47;7.60;;;14.60;70.20;;;;;;5043787;28;20448;-74
2023/06/18 01:55:21;;;;;;;8.90;7.10;;;14.50;70.10;;;;;;5041955;28;20484;-74
2023/06/18 01:58:07;;;;;;;10.53;7.67;;;14.40;70.60;;;;;;5043056;28;20803;-74
2023/06/18 02:00:52;;;;;;;11.70;7.37;;;14.30;71.10;;;;;;5039485;28;21052;-74
2023/06/18 02:03:39;;;;;;;10.50;7.63;;;14.20;71.20;;;;;;5044914;28;20468;-74
2023/06/18 02:06:25;;;;;;;8.90;7.30;;;14.10;71.90;;;;;;5043607;28;20467;-75
2023/06/18 02:09:11;;;;;;;7.73;6.33;;;14.10;72.70;;;;;;5044023;28;20808;-75
2023/06/18 02:11:56;;;;;;;12.83;7.03;;;14.10;72.80;;;;;;5045906;28;20494;-74
2023/06/18 02:14:41;;;;;;;8.33;6.50;;;14.20;72.70;;;;;;5044841;28;20523;-74
2023/06/18 02:17:28;;;;;;;7.67;6.80;;;14.30;72.00;;;;;;5045376;28;20822;-74
2023/06/18 02:20:13;;;;;;;9.23;7.40;;;14.20;72.10;;;;;;5043027;28;20434;-74
2023/06/18 02:23:00;;;;;;;7.73;6.73;;;14.10;72.30;;;;;;5033915;28;20443;-74
2023/06/18 02:25:45;;;;;;;11.70;7.30;;;14.10;72.70;;;;;;5044038;28;20440;-74
2023/06/18 02:28:31;;;;;;;8.77;7.00;;;14.10;72.70;;;;;;5050675;28;20518;-74
2023/06/18 02:31:17;;;;;;;12.60;8.10;;;14.10;73.00;;;;;;5044632;28;20694;-75
2023/06/18 02:34:02;;;;;;;9.70;7.40;;;14.10;73.10;;;;;;5042173;28;20440;-75
2023/06/18 02:36:48;;;;;;;8.90;7.63;;;14.10;72.80;;;;;;5048255;28;20778;-74
2023/06/18 02:39:35;;;;;;;10.23;6.93;;;14.10;72.80;;;;;;5043671;28;20778;-74
2023/06/18 02:42:22;;;;;;;8.17;6.80;;;14.10;73.00;;;;;;5048406;28;20961;-74
2023/06/18 02:45:08;;;;;;;7.40;6.37;;;14.10;73.50;;;;;;5042793;28;20821;-74
2023/06/18 02:47:53;;;;;;;12.80;6.40;;;14.10;73.40;;;;;;5042240;28;20478;-74
2023/06/18 02:50:38;;;;;;;14.03;8.23;;;14.00;72.90;;;;;;5038520;28;21104;-74
2023/06/18 02:53:24;;;;;;;7.67;6.47;;;13.90;73.30;;;;;;5042469;28;20487;-74
2023/06/18 02:56:11;;;;;;;14.93;7.57;;;13.80;74.00;;;;;;5042931;28;20546;-74
2023/06/18 02:58:56;;;;;;;9.83;6.53;;;13.90;74.30;;;;;;5046824;28;20443;-74
2023/06/18 03:01:44;;;;;;;8.63;6.87;;;13.90;74.20;;;;;;5041971;28;20447;-74
2023/06/18 03:04:29;;;;;;;7.13;6.43;;;14.00;74.20;;;;;;5038082;28;20993;-74
2023/06/18 03:07:15;;;;;;;9.30;7.70;;;14.00;74.30;;;;;;5040513;28;20473;-74
2023/06/18 03:10:00;;;;;;;9.07;7.30;;;13.90;74.30;;;;;;5037792;28;20456;-74
2023/06/18 03:12:47;;;;;;;8.77;7.50;;;13.90;74.60;;;;;;5046884;28;20965;-74
2023/06/18 03:15:32;;;;;;;10.90;7.20;;;13.70;75.10;;;;;;5041329;28;20471;-74
2023/06/18 03:18:18;;;;;;;8.30;7.20;;;13.70;75.40;;;;;;5041152;28;20448;-74
2023/06/18 03:21:03;;;;;;;8.23;7.37;;;13.40;75.60;;;;;;5038602;28;20468;-74
2023/06/18 03:23:49;;;;;;;7.33;6.33;;;13.40;76.30;;;;;;5044233;28;20452;-74
2023/06/18 03:26:36;;;;;;;9.20;7.10;;;13.50;77.40;;;;;;5042261;28;20562;-74
2023/06/18 03:29:24;;;;;;;8.20;7.40;;;13.50;76.90;;;;;;5042272;28;20493;-74
2023/06/18 03:32:09;;;;;;;8.60;6.73;;;13.50;77.20;;;;;;5042760;28;20448;-74
2023/06/18 03:34:55;;;;;;;11.03;7.37;;;13.70;77.60;;;;;;5036644;28;20476;-74
2023/06/18 03:37:41;;;;;;;8.70;7.07;;;13.80;76.80;;;;;;5043323;28;20463;-74
2023/06/18 03:40:26;;;;;;;8.53;6.10;;;13.90;77.60;;;;;;5039575;28;20440;-74
2023/06/18 03:43:11;;;;;;;8.53;7.47;;;14.00;78.00;;;;;;5044660;28;20578;-74
2023/06/18 03:45:58;;;;;;;10.90;7.43;;;14.00;78.20;;;;;;5044997;28;20534;-74
2023/06/18 03:48:44;;;;;;;15.27;7.13;;;14.00;77.10;;;;;;5039597;28;20539;-74
2023/06/18 03:51:29;;;;;;;8.47;6.50;;;14.00;77.60;;;;;;5040409;28;20468;-74
2023/06/18 03:54:15;;;;;;;16.43;7.10;;;14.00;77.10;;;;;;5039168;28;20951;-74
2023/06/18 03:57:00;;;;;;;8.10;7.00;;;14.00;76.90;;;;;;5043146;28;20480;-74
2023/06/18 03:59:46;;;;;;;10.33;7.27;;;14.10;77.90;;;;;;5037795;28;20457;-74
2023/06/18 04:02:33;;;;;;;7.27;6.57;;;14.30;79.00;;;;;;5044477;28;20921;-74
2023/06/18 04:05:18;;;;;;;7.33;6.50;;;14.40;78.80;;;;;;5048731;28;20468;-74
2023/06/18 04:08:04;;;;;;;9.60;7.40;;;14.50;78.40;;;;;;5042571;28;20820;-74
2023/06/18 04:10:50;;;;;;;15.10;7.90;;;14.40;77.80;;;;;;5044115;28;20448;-74
2023/06/18 04:13:36;;;;;;;16.33;8.17;;;14.30;77.50;;;;;;5043769;28;20923;-74
2023/06/18 04:16:21;;;;;;;12.10;7.83;;;14.30;77.20;;;;;;5045036;28;20958;-74
2023/06/18 04:19:08;;;;;;;12.27;7.70;;;14.30;77.50;;;;;;5044646;28;20463;-75
2023/06/18 04:21:53;;;;;;;10.63;7.50;;;14.20;77.50;;;;;;5041602;28;20652;-74
2023/06/18 04:24:39;;;;;;;7.90;6.87;;;14.10;78.30;;;;;;5040244;28;20464;-74
2023/06/18 04:27:24;;;;;;;7.87;6.97;;;14.10;79.10;;;;;;5043847;28;21015;-74
2023/06/18 04:30:10;;;;;;;9.83;7.60;;;14.10;79.60;;;;;;5041766;28;20822;-74
2023/06/18 04:32:56;;;;;;;8.10;7.17;;;14.30;81.20;;;;;;5045407;28;20451;-74
2023/06/18 04:35:44;;;;;;;11.70;8.00;;;14.50;81.40;;;;;;5039756;28;20476;-74
2023/06/18 04:38:29;;;;;;;9.47;7.47;;;14.60;80.20;;;;;;5035426;28;20495;-74
2023/06/18 04:41:15;;;;;;;15.80;7.60;;;14.70;79.60;;;;;;5041356;28;20447;-74
2023/06/18 04:44:00;;;;;;;11.90;6.87;;;14.40;79.30;;;;;;5035107;28;20444;-74
2023/06/18 04:46:46;;;;;;;8.90;8.00;;;14.50;81.50;;;;;;5043545;28;20460;-74
2023/06/18 04:49:31;;;;;;;8.60;7.20;;;14.50;80.00;;;;;;5039870;28;20944;-74
2023/06/18 04:52:18;;;;;;;9.33;7.47;;;14.70;80.90;;;;;;5041991;28;20439;-74
2023/06/18 04:55:04;;;;;;;13.00;8.10;;;14.90;80.90;;;;;;5034708;28;20944;-74
2023/06/18 04:57:50;;;;;;;8.60;7.27;;;15.10;80.90;;;;;;5042254;28;20467;-74
2023/06/18 05:00:35;;;;;;;11.93;7.43;;;15.20;81.30;;;;;;5040663;28;20451;-74
2023/06/18 05:03:21;;;;;;;7.67;6.87;;;15.40;81.20;;;;;;5043619;28;20439;-73
2023/06/18 05:06:06;;;;;;;8.50;7.40;;;15.50;81.20;;;;;;5049441;28;20464;-74
2023/06/18 05:08:53;;;;;;;11.47;8.07;;;15.50;80.60;;;;;;5040477;28;21167;-75
2023/06/18 05:11:39;;;;;;;9.80;8.60;;;15.40;78.70;;;;;;5039263;28;20463;-74
2023/06/18 05:14:24;;;;;;;9.60;7.53;;;15.50;76.40;;;;;;5041529;28;20447;-74
2023/06/18 05:17:11;;;;;;;8.40;7.20;;;15.60;77.10;;;;;;5043031;28;20472;-74
2023/06/18 05:19:56;;;;;;;10.03;7.70;;;15.70;78.60;;;;;;5034479;28;20464;-74
2023/06/18 05:22:41;;;;;;;11.90;7.97;;;15.90;80.10;;;;;;5041902;28;20985;-74
2023/06/18 05:25:28;;;;;;;9.20;8.20;;;16.10;78.80;;;;;;5038169;28;20518;-74
2023/06/18 05:28:14;;;;;;;9.30;7.37;;;16.30;77.20;;;;;;5043354;28;20440;-74
2023/06/18 05:30:59;;;;;;;13.10;7.80;;;16.30;77.70;;;;;;5042089;28;20451;-74
2023/06/18 05:33:45;;;;;;;17.33;7.63;;;16.30;78.80;;;;;;5045896;28;20476;-74
2023/06/18 05:36:30;;;;;;;12.17;7.97;;;16.40;78.70;;;;;;5044672;28;21243;-74
2023/06/18 05:39:16;;;;;;;10.93;8.40;;;16.50;79.50;;;;;;5045444;28;20448;-74
2023/06/18 05:42:03;;;;;;;8.50;6.70;;;16.60;79.10;;;;;;5040314;28;20436;-74
2023/06/18 05:44:49;;;;;;;9.60;7.80;;;16.80;78.30;;;;;;5044727;28;20464;-74
2023/06/18 05:47:34;;;;;;;11.43;7.50;;;16.80;75.60;;;;;;5043706;28;20565;-74
2023/06/18 05:50:20;;;;;;;8.10;6.47;;;17.00;74.80;;;;;;5036638;28;20446;-74
2023/06/18 05:53:05;;;;;;;9.40;6.70;;;17.10;73.70;;;;;;5040133;28;20445;-74
2023/06/18 05:55:51;;;;;;;8.50;7.27;;;17.20;73.30;;;;;;5036807;28;20487;-74
2023/06/18 05:58:37;;;;;;;7.70;6.90;;;17.40;73.40;;;;;;5042403;28;20448;-74
2023/06/18 06:01:23;;;;;;;8.63;7.50;;;17.60;72.80;;;;;;5037486;28;20459;-74
2023/06/18 06:04:08;;;;;;;8.00;6.90;;;17.70;71.50;;;;;;5044755;28;21010;-74
2023/06/18 06:06:54;;;;;;;10.50;6.20;;;17.80;68.00;;;;;;5048278;28;20467;-74
2023/06/18 06:09:40;;;;;;;8.93;6.60;;;18.00;66.10;;;;;;5042886;28;20493;-74
2023/06/18 06:12:25;;;;;;;8.33;7.00;;;18.10;64.90;;;;;;5044666;28;20448;-74
2023/06/18 06:15:12;;;;;;;8.10;6.97;;;18.20;64.00;;;;;;5045077;28;20826;-75
2023/06/18 06:17:57;;;;;;;9.77;7.20;;;18.40;64.40;;;;;;5044400;28;20479;-74
2023/06/18 06:20:42;;;;;;;9.17;6.57;;;18.50;64.90;;;;;;5037943;28;20480;-74
2023/06/18 06:23:28;;;;;;;8.87;6.73;;;18.60;63.80;;;;;;5041296;28;20506;-75
2023/06/18 06:26:13;;;;;;;9.90;7.33;;;18.70;63.90;;;;;;5042933;28;20456;-74
2023/06/18 06:29:00;;;;;;;8.93;7.03;;;18.70;65.80;;;;;;5044980;28;20436;-74
2023/06/18 06:31:47;;;;;;;10.00;7.07;;;18.80;66.00;;;;;;5052246;28;20454;-74
2023/06/18 06:34:33;;;;;;;10.50;6.30;;;18.90;63.00;;;;;;5039728;28;20460;-74
2023/06/18 06:37:18;;;;;;;10.93;7.30;;;19.00;64.10;;;;;;5050593;28;20554;-74
2023/06/18 06:40:04;;;;;;;7.90;6.87;;;19.10;62.50;;;;;;5048811;28;20602;-75
2023/06/18 06:42:50;;;;;;;6.93;5.90;;;19.30;63.10;;;;;;5046454;28;20595;-75
2023/06/18 06:45:35;;;;;;;7.00;6.30;;;19.50;63.10;;;;;;5049394;28;20469;-75
2023/06/18 06:48:22;;;;;;;10.93;7.17;;;19.50;62.20;;;;;;5049394;28;20527;-75
2023/06/18 06:51:08;;;;;;;7.97;6.93;;;19.50;61.40;;;;;;5048489;28;20462;-75
2023/06/18 06:53:53;;;;;;;9.70;7.60;;;19.70;60.30;;;;;;5044842;28;20460;-75
2023/06/18 06:56:39;;;;;;;8.80;6.40;;;19.80;58.30;;;;;;5048951;28;20476;-76
2023/06/18 06:59:25;;;;;;;8.30;7.07;;;20.00;57.10;;;;;;5050218;28;21040;-75
2023/06/18 07:02:10;;;;;;;9.40;7.30;;;20.20;54.90;;;;;;5050653;28;20443;-75
2023/06/18 07:04:57;;;;;;;11.23;7.73;;;20.30;54.50;;;;;;5045861;28;20578;-75
2023/06/18 07:07:43;;;;;;;11.60;7.80;;;20.50;53.80;;;;;;5041434;28;20468;-76
2023/06/18 07:10:28;;;;;;;10.33;6.73;;;20.60;53.20;;;;;;5038245;28;20440;-76
2023/06/18 07:13:14;;;;;;;8.20;6.60;;;20.80;54.20;;;;;;5044438;28;20444;-75
2023/06/18 07:15:59;;;;;;;13.30;7.23;;;20.90;51.70;;;;;;5040099;28;20476;-74
2023/06/18 07:18:45;;;;;;;14.30;6.70;;;21.10;52.40;;;;;;5045146;28;20447;-76
2023/06/18 07:21:32;;;;;;;8.13;7.17;;;21.20;53.30;;;;;;5049519;28;20991;-76
2023/06/18 07:24:18;;;;;;;8.20;7.10;;;21.30;49.60;;;;;;5040308;28;21012;-75
2023/06/18 07:27:03;;;;;;;8.30;6.13;;;21.50;47.20;;;;;;5040800;28;20596;-75
2023/06/18 07:29:49;;;;;;;11.03;7.77;;;21.60;48.30;;;;;;5040853;28;20448;-75
2023/06/18 07:32:34;;;;;;;7.90;7.10;;;21.70;45.60;;;;;;5033609;28;20514;-75
2023/06/18 07:35:20;;;;;;;8.90;7.43;;;21.80;46.60;;;;;;5045429;28;20443;-75
2023/06/18 07:38:07;;;;;;;13.13;7.03;;;21.90;48.40;;;;;;5040664;28;20978;-74
2023/06/18 07:40:54;;;;;;;9.70;7.40;;;22.10;45.50;;;;;;5038779;28;20440;-74
2023/06/18 07:43:40;;;;;;;7.70;6.90;;;22.20;44.90;;;;;;5039643;28;21147;-74
2023/06/18 07:46:26;;;;;;;8.70;7.17;;;22.30;43.70;;;;;;5039583;28;20460;-76
2023/06/18 07:49:12;;;;;;;9.40;8.20;;;22.40;43.90;;;;;;5036742;28;20448;-75
2023/06/18 07:51:58;;;;;;;7.97;7.07;;;22.60;46.50;;;;;;5049951;28;20443;-76
2023/06/18 07:54:45;;;;;;;10.40;7.60;;;22.80;44.00;;;;;;5036271;28;20465;-74
2023/06/18 07:57:31;;;;;;;10.70;8.07;;;22.90;42.70;;;;;;5040296;28;20494;-74
2023/06/18 08:00:16;;;;;;;13.50;8.23;;;23.00;43.20;;;;;;5042457;28;20439;-73
2023/06/18 08:03:02;;;;;;;7.33;6.30;;;23.10;46.70;;;;;;5042463;28;20457;-73
2023/06/18 08:05:47;;;;;;;10.50;7.00;;;23.30;49.10;;;;;;5048147;28;20929;-73
2023/06/18 08:08:33;;;;;;;15.53;8.37;;;23.40;44.40;;;;;;5047739;28;20510;-73
2023/06/18 08:11:19;;;;;;;11.20;7.60;;;23.50;39.30;;;;;;5042525;28;21011;-73
2023/06/18 08:14:05;;;;;;;9.53;7.40;;;23.60;38.20;;;;;;5039919;28;21016;-73
2023/06/18 08:16:50;;;;;;;12.53;7.47;;;23.60;35.70;;;;;;5047400;28;20480;-73
2023/06/18 08:19:36;;;;;;;9.23;6.93;;;23.70;40.00;;;;;;5046543;28;20553;-73
2023/06/18 08:22:21;;;;;;;8.70;7.13;;;23.90;38.10;;;;;;5051832;28;20541;-73
2023/06/18 08:25:07;;;;;;;13.30;7.03;;;23.90;40.80;;;;;;5052261;28;20447;-73
2023/06/18 08:27:54;;;;;;;7.63;6.83;;;24.10;40.10;;;;;;5055219;28;20827;-73
2023/06/18 08:30:40;;;;;;;10.97;7.53;;;24.10;41.60;;;;;;5051326;28;20532;-73
2023/06/18 08:33:25;;;;;;;14.77;8.70;;;24.20;41.90;;;;;;5052449;28;20531;-73
2023/06/18 08:36:11;;;;;;;17.30;8.33;;;24.30;38.50;;;;;;5048659;28;20467;-73
2023/06/18 08:38:57;;;;;;;10.60;8.23;;;24.30;38.00;;;;;;5052745;28;20426;-73
2023/06/18 08:41:45;;;;;;;10.20;8.27;;;24.40;36.20;;;;;;5045402;28;20439;-74
2023/06/18 08:44:33;;;;;;;12.20;8.50;;;24.50;38.20;;;;;;5045452;28;20451;-72
2023/06/18 08:47:18;;;;;;;11.40;8.80;;;24.50;34.20;;;;;;5035903;28;20591;-73
2023/06/18 08:50:07;;;;;;;12.73;9.20;;;24.60;35.70;;;;;;5042168;28;20446;-73
2023/06/18 08:52:58;;;;;;;11.57;8.20;;;24.70;35.50;;;;;;5039292;28;20502;-73
2023/06/18 08:55:44;;;;;;;11.00;8.03;;;24.80;31.90;;;;;;5041409;28;20451;-73
2023/06/18 08:58:32;;;;;;;10.53;8.27;;;24.90;32.60;;;;;;5045492;28;20554;-73
2023/06/18 09:01:19;;;;;;;8.80;7.90;;;25.00;34.50;;;;;;5051775;28;20823;-73
2023/06/18 09:04:06;;;;;;;9.10;8.20;;;25.00;33.50;;;;;;5048245;28;20443;-73
2023/06/18 09:06:51;;;;;;;9.57;8.23;;;25.10;31.30;;;;;;5059569;28;20943;-73
2023/06/18 09:09:37;;;;;;;9.90;8.50;;;25.10;32.80;;;;;;5032395;28;20531;-73
2023/06/18 09:12:22;;;;;;;17.23;8.70;;;25.20;30.00;;;;;;5049841;28;20453;-73
2023/06/18 09:15:09;;;;;;;10.30;8.77;;;25.30;28.60;;;;;;5042391;28;20436;-73
2023/06/18 09:17:55;;;;;;;10.60;8.87;;;25.40;31.50;;;;;;5047236;28;20481;-73
2023/06/18 09:20:41;;;;;;;9.83;8.83;;;25.50;27.10;;;;;;5041700;28;20434;-73
2023/06/18 09:23:27;;;;;;;10.57;8.90;;;25.50;29.00;;;;;;5047023;28;21211;-73
2023/06/18 09:26:14;;;;;;;10.20;8.67;;;25.60;26.90;;;;;;5053194;28;20462;-73
2023/06/18 09:29:03;;;;;;;13.17;8.83;;;25.70;27.90;;;;;;5047432;28;20437;-73
2023/06/18 09:31:48;;;;;;;10.20;8.43;;;25.80;27.80;;;;;;5044563;28;20474;-73
2023/06/18 09:34:36;;;;;;;10.50;9.40;;;25.90;28.70;;;;;;5039976;28;20445;-73
2023/06/18 09:37:22;;;;;;;9.60;8.60;;;26.00;29.60;;;;;;5052349;28;20506;-73
2023/06/18 09:40:09;;;;;;;9.53;8.53;;;26.10;24.20;;;;;;5045952;28;20465;-73
2023/06/18 09:42:54;;;;;;;10.73;8.43;;;26.30;26.10;;;;;;5061077;28;20453;-73
2023/06/18 09:45:40;;;;;;;8.83;7.57;;;26.30;24.00;;;;;;5044598;28;20489;-73
2023/06/18 09:48:26;;;;;;;9.27;8.37;;;26.40;22.30;;;;;;5051424;28;20447;-73
2023/06/18 09:51:15;;;;;;;9.40;8.13;;;26.50;22.10;;;;;;5048178;28;20862;-73
2023/06/18 09:54:00;;;;;;;10.83;9.00;;;26.60;20.40;;;;;;5050659;28;20817;-73
2023/06/18 09:56:57;;;;;;;11.10;9.07;;;26.60;21.80;;;;;;5052620;28;23242;-73
2023/06/18 09:59:42;;;;;;;12.60;8.90;;;26.60;21.00;;;;;;5052058;28;20443;-73
2023/06/18 10:02:27;;;;;;;11.10;8.50;;;26.60;20.00;;;;;;5050586;28;20451;-73
2023/06/18 10:05:13;;;;;;;9.23;8.20;;;26.70;19.20;;;;;;5041007;28;20806;-73
2023/06/18 10:08:01;;;;;;;16.03;8.63;;;26.80;18.40;;;;;;5045380;28;20549;-73
2023/06/18 10:10:46;;;;;;;11.30;8.17;;;26.90;17.70;;;;;;5041675;28;20440;-72
2023/06/18 10:13:32;;;;;;;8.77;7.80;;;27.00;20.30;;;;;;5045521;28;20460;-73
2023/06/18 10:16:19;;;;;;;9.30;8.33;;;27.00;17.50;;;;;;5040937;28;20871;-73
2023/06/18 10:19:14;;;;;;;9.43;7.80;;;27.10;17.10;;;;;;5043436;28;20464;-73
2023/06/18 10:22:03;;;;;;;8.70;7.80;;;27.10;17.50;;;;;;5047698;28;20440;-72
2023/06/18 10:24:55;;;;;;;8.17;7.37;;;27.10;15.70;;;;;;5043506;28;20494;-73
2023/06/18 10:27:41;;;;;;;14.50;9.10;;;27.20;15.90;;;;;;5036705;28;20464;-73
2023/06/18 10:30:28;;;;;;;12.90;9.40;;;27.30;16.60;;;;;;5043763;28;20435;-73
2023/06/18 10:33:13;;;;;;;9.77;8.10;;;27.20;14.80;;;;;;5044838;28;20459;-73
2023/06/18 10:35:59;;;;;;;12.70;8.77;;;27.30;15.20;;;;;;5038709;28;20534;-72
2023/06/18 10:38:45;;;;;;;8.80;7.90;;;27.40;15.10;;;;;;5042841;28;21027;-72
2023/06/18 10:41:32;;;;;;;9.70;7.80;;;27.50;14.70;;;;;;5040491;28;20451;-73
2023/06/18 10:44:17;;;;;;;8.80;7.80;;;27.50;15.90;;;;;;5041788;28;20956;-73
2023/06/18 10:47:20;;;;;;;10.50;8.67;;;27.50;14.80;;;;;;5042086;28;20557;-73
2023/06/18 10:50:13;;;;;;;14.60;8.33;;;27.70;15.60;;;;;;5048723;28;20459;-72
2023/06/18 10:53:23;;;;;;;10.77;8.27;;;27.70;16.60;;;;;;5058717;28;20521;-72
2023/06/18 10:56:08;;;;;;;11.93;8.27;;;27.70;14.20;;;;;;5043832;28;21063;-73
2023/06/18 10:58:54;;;;;;;8.23;7.33;;;27.70;13.90;;;;;;5059412;28;20463;-73
2023/06/18 11:01:43;;;;;;;9.23;7.60;;;27.80;12.90;;;;;;5043481;28;20443;-72
2023/06/18 11:04:30;;;;;;;8.30;7.37;;;27.80;13.10;;;;;;5042488;28;20556;-73
2023/06/18 11:07:19;;;;;;;7.17;6.47;;;27.90;12.80;;;;;;5043839;28;20462;-73
2023/06/18 11:10:07;;;;;;;8.60;7.40;;;28.00;11.50;;;;;;5042037;28;20585;-73
2023/06/18 11:12:55;;;;;;;8.57;7.67;;;28.10;11.70;;;;;;5049482;28;20775;-73
2023/06/18 11:15:53;;;;;;;11.53;7.47;;;28.10;14.10;;;;;;5039556;28;20457;-74
2023/06/18 11:18:40;;;;;;;9.37;8.00;;;28.20;11.80;;;;;;5049293;28;20992;-74
2023/06/18 11:21:26;;;;;;;11.00;8.10;;;28.30;11.30;;;;;;5050361;28;20463;-73
2023/06/18 11:24:12;;;;;;;10.20;7.30;;;28.30;10.90;;;;;;5044910;28;20449;-73
2023/06/18 11:26:59;;;;;;;10.53;7.20;;;28.30;11.40;;;;;;5047419;28;20830;-73
2023/06/18 11:29:45;;;;;;;10.57;7.70;;;28.40;13.10;;;;;;5044437;28;20457;-73
2023/06/18 11:32:30;;;;;;;7.73;6.60;;;28.60;10.20;;;;;;5044572;28;20463;-73
2023/06/18 11:35:16;;;;;;;10.13;6.60;;;28.80;11.00;;;;;;5041450;28;20444;-72
2023/06/18 11:38:02;;;;;;;7.57;6.70;;;28.80;9.40;;;;;;5047516;28;20476;-72
2023/06/18 11:40:51;;;;;;;7.60;6.60;;;28.90;9.50;;;;;;5038693;28;20443;-72
2023/06/18 11:43:46;;;;;;;8.37;7.43;;;29.00;10.00;;;;;;5041433;28;20445;-72
2023/06/18 11:46:34;;;;;;;8.97;7.37;;;29.10;10.10;;;;;;5039115;28;20460;-72
2023/06/18 11:49:20;;;;;;;7.73;6.70;;;29.20;9.60;;;;;;5046116;28;20444;-72
2023/06/18 11:52:06;;;;;;;8.37;7.37;;;29.30;9.70;;;;;;5040963;28;20973;-72
2023/06/18 11:54:53;;;;;;;8.90;6.50;;;29.30;8.50;;;;;;5038056;28;20444;-71
2023/06/18 11:57:40;;;;;;;12.93;6.90;;;29.30;9.00;;;;;;5040069;28;20834;-73
2023/06/18 12:00:27;;;;;;;7.40;6.60;;;29.40;8.10;;;;;;5035528;28;20451;-73
2023/06/18 12:03:13;;;;;;;8.27;6.97;;;29.40;9.60;;;;;;5043596;28;20547;-74
2023/06/18 12:05:58;;;;;;;18.37;15.23;;;29.50;6.00;;;;;;5050412;28;20522;-73
2023/06/18 12:08:45;;;;;;;11.50;10.40;;;29.40;7.40;;;;;;5040650;28;20588;-73
2023/06/18 12:11:43;;;;;;;9.87;7.33;;;29.40;5.60;;;;;;5044246;28;20473;-74
2023/06/18 12:14:35;;;;;;;9.57;7.70;;;29.70;5.60;;;;;;5042672;28;20457;-74
2023/06/18 12:17:30;;;;;;;8.43;7.07;;;29.90;7.80;;;;;;5045497;28;20517;-73
2023/06/18 12:20:18;;;;;;;8.47;7.50;;;30.10;7.70;;;;;;5036568;28;20530;-73
2023/06/18 12:23:05;;;;;;;8.43;7.00;;;30.30;8.60;;;;;;5049339;28;20447;-74
2023/06/18 12:25:50;;;;;;;8.80;6.77;;;30.50;6.50;;;;;;5051045;28;20440;-72
2023/06/18 12:28:35;;;;;;;8.30;6.50;;;30.60;5.10;;;;;;5037886;28;20446;-73
2023/06/18 12:31:21;;;;;;;7.50;6.17;;;30.70;6.00;;;;;;5038978;28;20806;-73
2023/06/18 12:34:22;;;;;;;8.50;6.00;;;30.60;4.90;;;;;;5041171;28;20495;-72
2023/06/18 12:37:08;;;;;;;16.13;6.90;;;30.60;5.60;;;;;;5038357;28;20482;-72
2023/06/18 12:40:10;;;;;;;14.87;11.80;;;30.80;4.60;;;;;;5040180;28;20441;-72
2023/06/18 12:42:56;;;;;;;11.37;7.23;;;30.90;5.20;;;;;;5042991;28;20478;-72
2023/06/18 12:45:41;;;;;;;8.30;6.63;;;30.80;5.20;;;;;;5040210;28;20536;-72
2023/06/18 12:48:29;;;;;;;9.97;6.17;;;30.90;6.60;;;;;;5037733;28;20810;-72
2023/06/18 12:51:16;;;;;;;8.60;6.50;;;30.90;5.80;;;;;;5035911;28;20455;-72
2023/06/18 12:54:01;;;;;;;16.23;13.03;;;31.00;5.20;;;;;;5043808;28;20451;-72
2023/06/18 12:56:48;;;;;;;12.30;9.90;;;31.10;6.40;;;;;;5040943;28;20661;-72
2023/06/18 12:59:34;;;;;;;43.03;34.70;;;31.10;4.90;;;;;;5036368;28;21065;-72
2023/06/18 13:02:20;;;;;;;17.07;11.33;;;31.10;4.30;;;;;;5040059;28;20574;-72
2023/06/18 13:05:06;;;;;;;20.53;15.30;;;31.10;5.00;;;;;;5034333;28;20508;-72
2023/06/18 13:07:53;;;;;;;13.67;10.10;;;31.00;4.60;;;;;;5038499;28;20458;-72
2023/06/18 13:10:39;;;;;;;14.87;6.70;;;30.90;4.80;;;;;;5040906;28;20443;-73
2023/06/18 13:13:24;;;;;;;9.43;6.77;;;30.70;4.30;;;;;;5047045;28;20808;-73
2023/06/18 13:16:10;;;;;;;10.20;7.00;;;30.60;4.90;;;;;;5041838;28;20478;-73
2023/06/18 13:18:56;;;;;;;8.47;7.50;;;30.50;5.40;;;;;;5036387;28;20476;-73
2023/06/18 13:21:41;;;;;;;13.13;5.97;;;30.60;5.00;;;;;;5038724;28;21054;-73
2023/06/18 13:24:28;;;;;;;12.40;6.73;;;30.80;4.60;;;;;;5041631;28;20446;-73
2023/06/18 13:27:13;;;;;;;7.70;6.60;;;30.90;5.30;;;;;;5037504;28;20475;-72
2023/06/18 13:29:59;;;;;;;7.67;6.40;;;31.00;5.20;;;;;;5033369;28;20810;-73
2023/06/18 13:32:45;;;;;;;7.97;5.97;;;31.20;4.10;;;;;;5040084;28;20513;-72
2023/06/18 13:35:31;;;;;;;8.00;6.63;;;31.30;3.70;;;;;;5037693;28;20926;-72
2023/06/18 13:38:16;;;;;;;8.90;6.17;;;31.20;3.30;;;;;;5042351;28;20992;-71
2023/06/18 13:41:03;;;;;;;8.67;6.87;;;31.30;6.50;;;;;;5039890;28;20534;-73
2023/06/18 13:43:49;;;;;;;7.07;6.37;;;31.50;4.70;;;;;;5044746;28;20460;-73
2023/06/18 13:46:34;;;;;;;7.20;6.50;;;31.60;4.30;;;;;;5050034;28;20499;-73
2023/06/18 13:49:20;;;;;;;9.33;6.10;;;31.60;3.70;;;;;;5043967;28;20437;-72
2023/06/18 13:52:06;;;;;;;8.00;6.67;;;31.60;4.00;;;;;;5043407;28;21095;-73
2023/06/18 13:54:52;;;;;;;9.50;6.27;;;31.60;3.80;;;;;;5045766;28;20451;-73
2023/06/18 13:57:38;;;;;;;7.70;6.90;;;31.50;3.50;;;;;;5045531;28;21124;-73
2023/06/18 14:00:24;;;;;;;7.40;5.67;;;31.60;5.00;;;;;;5046267;28;20436;-72
2023/06/18 14:03:09;;;;;;;6.40;5.50;;;31.70;4.70;;;;;;5043857;28;20447;-73
2023/06/18 14:05:55;;;;;;;7.73;6.50;;;31.80;3.10;;;;;;5046425;28;20440;-72
2023/06/18 14:08:41;;;;;;;10.30;5.97;;;31.80;4.60;;;;;;5042796;28;20572;-73
2023/06/18 14:11:27;;;;;;;7.07;6.03;;;31.80;3.30;;;;;;5044596;28;20441;-72
2023/06/18 14:14:14;;;;;;;8.00;6.07;;;31.90;2.90;;;;;;5043851;28;20446;-73
2023/06/18 14:16:59;;;;;;;7.33;6.23;;;31.90;3.50;;;;;;5042644;28;20480;-72
2023/06/18 14:19:45;;;;;;;8.87;6.50;;;32.00;5.00;;;;;;5044042;28;20479;-73
2023/06/18 14:22:31;;;;;;;7.17;6.43;;;32.10;2.70;;;;;;5047545;28;20448;-72
2023/06/18 14:25:16;;;;;;;13.40;7.97;;;32.10;2.10;;;;;;5043302;28;20794;-73